sensor_id;sensor_type;location;lat;lon;timestamp;temperature;humidity
22813;DHT22;11573;51.334;3.244;2024-01-15T00:00:29;4.00;99.90
22813;DHT22;11573;51.334;3.244;2024-01-15T00:02:57;4.00;99.90
22813;DHT22;11573;51.334;3.244;2024-01-15T00:05:24;4.10;99.90
22813;DHT22;11573;51.334;3.244;2024-01-15T00:07:51;4.10;99.90
22813;DHT22;11573;51.334;3.244;2024-01-15T00:10:18;4.10;99.90
22813;DHT22;11573;51.334;3.244;2024-01-15T00:12:45;4.10;99.90
22813;DHT22;11573;51.334;3.244;2024-01-15T00:15:12;4.20;99.90
22813;DHT22;11573;51.334;3.244;2024-01-15T00:17:39;4.30;99.90
22813;DHT22;11573;51.334;3.244;2024-01-15T00:20:06;4.30;99.90
22813;DHT22;11573;51.334;3.244;2024-01-15T00:22:34;4.40;99.90
22813;DHT22;11573;51.334;3.244;2024-01-15T00:25:02;4.30;99.90
22813;DHT22;11573;51.334;3.244;2024-01-15T00:27:29;4.30;99.90
22813;DHT22;11573;51.334;3.244;2024-01-15T00:29:56;4.30;99.90
22813;DHT22;11573;51.334;3.244;2024-01-15T00:32:23;4.30;99.90
22813;DHT22;11573;51.334;3.244;2024-01-15T00:34:50;4.40;99.90
22813;DHT22;11573;51.334;3.244;2024-01-15T00:37:18;4.40;99.90
22813;DHT22;11573;51.334;3.244;2024-01-15T00:39:45;4.40;99.90
22813;DHT22;11573;51.334;3.244;2024-01-15T00:42:12;4.50;99.90
22813;DHT22;11573;51.334;3.244;2024-01-15T00:44:42;4.60;99.90
22813;DHT22;11573;51.334;3.244;2024-01-15T00:47:09;4.50;99.90
22813;DHT22;11573;51.334;3.244;2024-01-15T00:49:36;4.50;99.90
22813;DHT22;11573;51.334;3.244;2024-01-15T00:52:03;4.40;99.90
22813;DHT22;11573;51.334;3.244;2024-01-15T00:54:30;4.40;99.90
22813;DHT22;11573;51.334;3.244;2024-01-15T00:56:57;4.40;99.90
22813;DHT22;11573;51.334;3.244;2024-01-15T00:59:24;4.40;99.90
22813;DHT22;11573;51.334;3.244;2024-01-15T01:01:51;4.50;99.90
22813;DHT22;11573;51.334;3.244;2024-01-15T01:04:18;4.50;99.90
22813;DHT22;11573;51.334;3.244;2024-01-15T01:06:45;4.60;99.90
22813;DHT22;11573;51.334;3.244;2024-01-15T01:09:12;4.60;99.90
22813;DHT22;11573;51.334;3.244;2024-01-15T01:11:39;4.50;99.90
22813;DHT22;11573;51.334;3.244;2024-01-15T01:14:06;4.40;99.90
22813;DHT22;11573;51.334;3.244;2024-01-15T01:16:33;4.40;99.90
22813;DHT22;11573;51.334;3.244;2024-01-15T01:19:06;4.40;99.90
22813;DHT22;11573;51.334;3.244;2024-01-15T01:21:34;4.40;99.90
22813;DHT22;11573;51.334;3.244;2024-01-15T01:24:01;4.40;99.90
22813;DHT22;11573;51.334;3.244;2024-01-15T01:26:28;4.40;99.90
22813;DHT22;11573;51.334;3.244;2024-01-15T01:28:55;4.40;99.90
22813;DHT22;11573;51.334;3.244;2024-01-15T01:31:23;4.50;99.90
22813;DHT22;11573;51.334;3.244;2024-01-15T01:33:51;4.40;99.90
22813;DHT22;11573;51.334;3.244;2024-01-15T01:36:18;4.50;99.90
22813;DHT22;11573;51.334;3.244;2024-01-15T01:38:45;4.50;99.90
22813;DHT22;11573;51.334;3.244;2024-01-15T01:41:12;4.40;99.90
22813;DHT22;11573;51.334;3.244;2024-01-15T01:43:39;4.30;99.90
22813;DHT22;11573;51.334;3.244;2024-01-15T01:46:06;4.40;99.90
22813;DHT22;11573;51.334;3.244;2024-01-15T01:48:35;4.40;99.90
22813;DHT22;11573;51.334;3.244;2024-01-15T01:51:03;4.50;99.90
22813;DHT22;11573;51.334;3.244;2024-01-15T01:53:32;4.50;99.90
22813;DHT22;11573;51.334;3.244;2024-01-15T01:56:00;4.50;99.90
22813;DHT22;11573;51.334;3.244;2024-01-15T01:58:28;4.50;99.90
22813;DHT22;11573;51.334;3.244;2024-01-15T02:00:56;4.40;99.90
22813;DHT22;11573;51.334;3.244;2024-01-15T02:03:23;4.40;99.90
22813;DHT22;11573;51.334;3.244;2024-01-15T02:05:51;4.40;99.90
22813;DHT22;11573;51.334;3.244;2024-01-15T02:08:19;4.50;99.90
22813;DHT22;11573;51.334;3.244;2024-01-15T02:10:46;4.40;99.90
22813;DHT22;11573;51.334;3.244;2024-01-15T02:13:14;4.40;99.90
22813;DHT22;11573;51.334;3.244;2024-01-15T02:15:41;4.40;99.90
22813;DHT22;11573;51.334;3.244;2024-01-15T02:18:08;4.40;99.90
22813;DHT22;11573;51.334;3.244;2024-01-15T02:20:36;4.40;99.90
22813;DHT22;11573;51.334;3.244;2024-01-15T02:25:45;4.50;99.90
22813;DHT22;11573;51.334;3.244;2024-01-15T02:28:17;4.50;99.90
22813;DHT22;11573;51.334;3.244;2024-01-15T02:30:44;4.50;99.90
22813;DHT22;11573;51.334;3.244;2024-01-15T02:33:12;4.60;99.90
22813;DHT22;11573;51.334;3.244;2024-01-15T02:35:40;4.50;99.90
22813;DHT22;11573;51.334;3.244;2024-01-15T02:38:08;4.50;99.90
22813;DHT22;11573;51.334;3.244;2024-01-15T02:40:35;4.50;99.90
22813;DHT22;11573;51.334;3.244;2024-01-15T02:43:02;4.60;99.90
22813;DHT22;11573;51.334;3.244;2024-01-15T02:45:30;4.60;99.90
22813;DHT22;11573;51.334;3.244;2024-01-15T02:47:57;4.60;99.90
22813;DHT22;11573;51.334;3.244;2024-01-15T02:50:24;4.70;99.90
22813;DHT22;11573;51.334;3.244;2024-01-15T02:52:51;4.70;99.90
22813;DHT22;11573;51.334;3.244;2024-01-15T02:55:18;4.70;99.90
22813;DHT22;11573;51.334;3.244;2024-01-15T02:57:45;4.70;99.90
22813;DHT22;11573;51.334;3.244;2024-01-15T03:00:12;4.70;99.90
22813;DHT22;11573;51.334;3.244;2024-01-15T03:02:40;4.70;99.90
22813;DHT22;11573;51.334;3.244;2024-01-15T03:05:13;4.60;99.90
22813;DHT22;11573;51.334;3.244;2024-01-15T03:07:40;4.60;99.90
22813;DHT22;11573;51.334;3.244;2024-01-15T03:10:08;4.50;99.90
22813;DHT22;11573;51.334;3.244;2024-01-15T03:12:35;4.50;99.90
22813;DHT22;11573;51.334;3.244;2024-01-15T03:15:02;4.50;99.90
22813;DHT22;11573;51.334;3.244;2024-01-15T03:17:30;4.50;99.90
22813;DHT22;11573;51.334;3.244;2024-01-15T03:19:57;4.50;99.90
22813;DHT22;11573;51.334;3.244;2024-01-15T03:22:24;4.40;99.90
22813;DHT22;11573;51.334;3.244;2024-01-15T03:24:52;4.40;99.90
22813;DHT22;11573;51.334;3.244;2024-01-15T03:27:19;4.30;99.90
22813;DHT22;11573;51.334;3.244;2024-01-15T03:29:46;4.30;99.90
22813;DHT22;11573;51.334;3.244;2024-01-15T03:32:13;4.20;99.90
22813;DHT22;11573;51.334;3.244;2024-01-15T03:34:40;4.20;99.90
22813;DHT22;11573;51.334;3.244;2024-01-15T03:37:07;4.20;99.90
22813;DHT22;11573;51.334;3.244;2024-01-15T03:39:34;4.20;99.90
22813;DHT22;11573;51.334;3.244;2024-01-15T03:42:01;4.10;99.90
22813;DHT22;11573;51.334;3.244;2024-01-15T03:44:28;4.20;99.90
22813;DHT22;11573;51.334;3.244;2024-01-15T03:46:55;4.20;99.90
22813;DHT22;11573;51.334;3.244;2024-01-15T03:49:22;4.20;99.90
22813;DHT22;11573;51.334;3.244;2024-01-15T03:51:49;4.10;99.90
22813;DHT22;11573;51.334;3.244;2024-01-15T03:54:16;4.20;99.90
22813;DHT22;11573;51.334;3.244;2024-01-15T03:56:46;4.20;99.90
22813;DHT22;11573;51.334;3.244;2024-01-15T03:59:13;4.10;99.90
22813;DHT22;11573;51.334;3.244;2024-01-15T04:01:40;4.20;99.90
22813;DHT22;11573;51.334;3.244;2024-01-15T04:04:07;4.10;99.90
22813;DHT22;11573;51.334;3.244;2024-01-15T04:06:34;4.20;99.90
22813;DHT22;11573;51.334;3.244;2024-01-15T04:09:02;4.10;99.90
22813;DHT22;11573;51.334;3.244;2024-01-15T04:11:29;4.10;99.90
22813;DHT22;11573;51.334;3.244;2024-01-15T04:13:56;4.10;99.90
22813;DHT22;11573;51.334;3.244;2024-01-15T04:16:23;4.10;99.90
22813;DHT22;11573;51.334;3.244;2024-01-15T04:18:50;4.10;99.90
22813;DHT22;11573;51.334;3.244;2024-01-15T04:21:17;4.20;99.90
22813;DHT22;11573;51.334;3.244;2024-01-15T04:23:45;4.20;99.90
22813;DHT22;11573;51.334;3.244;2024-01-15T04:26:12;4.20;99.90
22813;DHT22;11573;51.334;3.244;2024-01-15T04:28:39;4.10;99.90
22813;DHT22;11573;51.334;3.244;2024-01-15T04:31:07;4.20;99.90
22813;DHT22;11573;51.334;3.244;2024-01-15T04:33:34;4.20;99.90
22813;DHT22;11573;51.334;3.244;2024-01-15T04:36:03;4.20;99.90
22813;DHT22;11573;51.334;3.244;2024-01-15T04:38:30;4.30;99.90
22813;DHT22;11573;51.334;3.244;2024-01-15T04:40:59;4.40;99.90
22813;DHT22;11573;51.334;3.244;2024-01-15T04:43:29;4.40;99.90
22813;DHT22;11573;51.334;3.244;2024-01-15T04:45:57;4.40;99.90
22813;DHT22;11573;51.334;3.244;2024-01-15T04:48:24;4.40;99.90
22813;DHT22;11573;51.334;3.244;2024-01-15T04:50:52;4.40;99.90
22813;DHT22;11573;51.334;3.244;2024-01-15T04:53:19;4.30;99.90
22813;DHT22;11573;51.334;3.244;2024-01-15T04:55:46;4.30;99.90
22813;DHT22;11573;51.334;3.244;2024-01-15T04:58:13;4.30;99.90
22813;DHT22;11573;51.334;3.244;2024-01-15T05:00:39;4.30;99.90
22813;DHT22;11573;51.334;3.244;2024-01-15T05:03:07;4.30;99.90
22813;DHT22;11573;51.334;3.244;2024-01-15T05:05:34;4.30;99.90
22813;DHT22;11573;51.334;3.244;2024-01-15T05:08:01;4.30;99.90
22813;DHT22;11573;51.334;3.244;2024-01-15T05:10:28;4.20;99.90
22813;DHT22;11573;51.334;3.244;2024-01-15T05:12:55;4.20;99.90
22813;DHT22;11573;51.334;3.244;2024-01-15T05:15:21;4.20;99.90
22813;DHT22;11573;51.334;3.244;2024-01-15T05:17:48;4.10;99.90
22813;DHT22;11573;51.334;3.244;2024-01-15T05:20:16;4.10;99.90
22813;DHT22;11573;51.334;3.244;2024-01-15T05:22:43;4.10;99.90
22813;DHT22;11573;51.334;3.244;2024-01-15T05:25:10;4.10;99.90
22813;DHT22;11573;51.334;3.244;2024-01-15T05:27:36;4.10;99.90
22813;DHT22;11573;51.334;3.244;2024-01-15T05:30:04;4.10;99.90
22813;DHT22;11573;51.334;3.244;2024-01-15T05:32:32;4.10;99.90
22813;DHT22;11573;51.334;3.244;2024-01-15T05:34:59;4.10;99.90
22813;DHT22;11573;51.334;3.244;2024-01-15T05:37:26;4.10;99.90
22813;DHT22;11573;51.334;3.244;2024-01-15T05:39:53;4.00;99.90
22813;DHT22;11573;51.334;3.244;2024-01-15T05:42:20;4.00;99.90
22813;DHT22;11573;51.334;3.244;2024-01-15T05:44:47;4.00;99.90
22813;DHT22;11573;51.334;3.244;2024-01-15T05:47:14;3.90;99.90
22813;DHT22;11573;51.334;3.244;2024-01-15T05:49:41;3.90;99.90
22813;DHT22;11573;51.334;3.244;2024-01-15T05:52:08;3.90;99.90
22813;DHT22;11573;51.334;3.244;2024-01-15T05:54:35;3.90;99.90
22813;DHT22;11573;51.334;3.244;2024-01-15T05:57:02;3.90;99.90
22813;DHT22;11573;51.334;3.244;2024-01-15T05:59:29;3.90;99.90
22813;DHT22;11573;51.334;3.244;2024-01-15T06:01:58;3.90;99.90
22813;DHT22;11573;51.334;3.244;2024-01-15T06:04:26;4.00;99.90
22813;DHT22;11573;51.334;3.244;2024-01-15T06:06:53;4.00;99.90
22813;DHT22;11573;51.334;3.244;2024-01-15T06:09:20;3.90;99.90
22813;DHT22;11573;51.334;3.244;2024-01-15T06:11:47;3.90;99.90
22813;DHT22;11573;51.334;3.244;2024-01-15T06:14:14;3.80;99.90
22813;DHT22;11573;51.334;3.244;2024-01-15T06:16:41;3.80;99.90
22813;DHT22;11573;51.334;3.244;2024-01-15T06:19:08;3.80;99.90
22813;DHT22;11573;51.334;3.244;2024-01-15T06:21:35;3.70;99.90
22813;DHT22;11573;51.334;3.244;2024-01-15T06:24:03;3.70;99.90
22813;DHT22;11573;51.334;3.244;2024-01-15T06:26:30;3.70;99.90
22813;DHT22;11573;51.334;3.244;2024-01-15T06:28:57;3.70;99.90
22813;DHT22;11573;51.334;3.244;2024-01-15T06:31:23;3.80;99.90
22813;DHT22;11573;51.334;3.244;2024-01-15T06:33:50;3.90;99.90
22813;DHT22;11573;51.334;3.244;2024-01-15T06:36:18;3.80;99.90
22813;DHT22;11573;51.334;3.244;2024-01-15T06:38:45;3.80;99.90
22813;DHT22;11573;51.334;3.244;2024-01-15T06:41:12;3.90;99.90
22813;DHT22;11573;51.334;3.244;2024-01-15T06:43:39;3.80;99.90
22813;DHT22;11573;51.334;3.244;2024-01-15T06:46:06;3.80;99.90
22813;DHT22;11573;51.334;3.244;2024-01-15T06:48:34;3.80;99.90
22813;DHT22;11573;51.334;3.244;2024-01-15T06:51:02;3.80;99.90
22813;DHT22;11573;51.334;3.244;2024-01-15T06:53:29;3.80;99.90
22813;DHT22;11573;51.334;3.244;2024-01-15T06:55:56;3.70;99.90
22813;DHT22;11573;51.334;3.244;2024-01-15T06:58:23;3.80;99.90
22813;DHT22;11573;51.334;3.244;2024-01-15T07:00:49;3.80;99.90
22813;DHT22;11573;51.334;3.244;2024-01-15T07:03:17;3.80;99.90
22813;DHT22;11573;51.334;3.244;2024-01-15T07:05:44;3.80;99.90
22813;DHT22;11573;51.334;3.244;2024-01-15T07:08:11;3.70;99.90
22813;DHT22;11573;51.334;3.244;2024-01-15T07:10:38;3.70;99.90
22813;DHT22;11573;51.334;3.244;2024-01-15T07:13:05;3.70;99.90
22813;DHT22;11573;51.334;3.244;2024-01-15T07:15:32;3.70;99.90
22813;DHT22;11573;51.334;3.244;2024-01-15T07:17:59;3.70;99.90
22813;DHT22;11573;51.334;3.244;2024-01-15T07:20:26;3.70;99.90
22813;DHT22;11573;51.334;3.244;2024-01-15T07:22:53;3.60;99.90
22813;DHT22;11573;51.334;3.244;2024-01-15T07:25:20;3.70;99.90
22813;DHT22;11573;51.334;3.244;2024-01-15T07:27:47;3.70;99.90
22813;DHT22;11573;51.334;3.244;2024-01-15T07:30:14;3.70;99.90
22813;DHT22;11573;51.334;3.244;2024-01-15T07:32:42;3.70;99.90
22813;DHT22;11573;51.334;3.244;2024-01-15T07:35:09;3.70;99.90
22813;DHT22;11573;51.334;3.244;2024-01-15T07:37:37;3.70;99.90
22813;DHT22;11573;51.334;3.244;2024-01-15T07:40:05;3.70;99.90
22813;DHT22;11573;51.334;3.244;2024-01-15T07:42:35;3.70;99.90
22813;DHT22;11573;51.334;3.244;2024-01-15T07:45:02;3.80;99.90
22813;DHT22;11573;51.334;3.244;2024-01-15T07:47:29;3.70;99.90
22813;DHT22;11573;51.334;3.244;2024-01-15T07:49:56;3.70;99.90
22813;DHT22;11573;51.334;3.244;2024-01-15T07:52:29;3.70;99.90
22813;DHT22;11573;51.334;3.244;2024-01-15T07:54:57;3.70;99.90
22813;DHT22;11573;51.334;3.244;2024-01-15T07:57:26;3.90;99.90
22813;DHT22;11573;51.334;3.244;2024-01-15T07:59:54;3.80;99.90
22813;DHT22;11573;51.334;3.244;2024-01-15T08:02:21;3.80;99.90
22813;DHT22;11573;51.334;3.244;2024-01-15T08:04:48;3.80;99.90
22813;DHT22;11573;51.334;3.244;2024-01-15T08:07:15;3.80;99.90
22813;DHT22;11573;51.334;3.244;2024-01-15T08:09:43;3.80;99.90
22813;DHT22;11573;51.334;3.244;2024-01-15T08:12:10;3.80;99.90
22813;DHT22;11573;51.334;3.244;2024-01-15T08:14:38;3.80;99.90
22813;DHT22;11573;51.334;3.244;2024-01-15T08:17:05;3.80;99.90
22813;DHT22;11573;51.334;3.244;2024-01-15T08:19:32;3.80;99.90
22813;DHT22;11573;51.334;3.244;2024-01-15T08:22:00;3.80;99.90
22813;DHT22;11573;51.334;3.244;2024-01-15T08:24:27;3.80;99.90
22813;DHT22;11573;51.334;3.244;2024-01-15T08:41:27;3.90;99.90
22813;DHT22;11573;51.334;3.244;2024-01-15T08:43:54;3.90;99.90
22813;DHT22;11573;51.334;3.244;2024-01-15T08:46:21;3.80;99.90
22813;DHT22;11573;51.334;3.244;2024-01-15T08:48:47;3.80;99.90
22813;DHT22;11573;51.334;3.244;2024-01-15T08:51:15;3.70;99.90
22813;DHT22;11573;51.334;3.244;2024-01-15T08:53:42;3.70;99.90
22813;DHT22;11573;51.334;3.244;2024-01-15T08:56:09;3.60;99.90
22813;DHT22;11573;51.334;3.244;2024-01-15T08:58:36;3.60;99.90
22813;DHT22;11573;51.334;3.244;2024-01-15T09:01:03;3.60;99.90
22813;DHT22;11573;51.334;3.244;2024-01-15T09:03:31;3.70;99.90
22813;DHT22;11573;51.334;3.244;2024-01-15T09:06:00;3.70;99.90
22813;DHT22;11573;51.334;3.244;2024-01-15T09:08:28;3.70;99.90
22813;DHT22;11573;51.334;3.244;2024-01-15T09:10:54;3.70;99.90
22813;DHT22;11573;51.334;3.244;2024-01-15T09:13:21;3.80;99.90
22813;DHT22;11573;51.334;3.244;2024-01-15T09:15:48;3.80;99.90
22813;DHT22;11573;51.334;3.244;2024-01-15T09:18:17;3.80;99.90
22813;DHT22;11573;51.334;3.244;2024-01-15T09:20:44;3.70;99.90
22813;DHT22;11573;51.334;3.244;2024-01-15T09:23:11;3.70;99.90
22813;DHT22;11573;51.334;3.244;2024-01-15T09:25:38;3.80;99.90
22813;DHT22;11573;51.334;3.244;2024-01-15T09:28:05;3.80;99.90
22813;DHT22;11573;51.334;3.244;2024-01-15T09:30:35;3.80;99.90
22813;DHT22;11573;51.334;3.244;2024-01-15T09:33:02;3.80;99.90
22813;DHT22;11573;51.334;3.244;2024-01-15T09:35:29;3.80;99.90
22813;DHT22;11573;51.334;3.244;2024-01-15T09:37:56;3.90;99.90
22813;DHT22;11573;51.334;3.244;2024-01-15T09:40:23;4.00;99.90
22813;DHT22;11573;51.334;3.244;2024-01-15T09:42:52;4.00;99.90
22813;DHT22;11573;51.334;3.244;2024-01-15T09:45:19;4.00;99.90
22813;DHT22;11573;51.334;3.244;2024-01-15T09:47:47;4.00;99.90
22813;DHT22;11573;51.334;3.244;2024-01-15T09:50:14;3.90;99.90
22813;DHT22;11573;51.334;3.244;2024-01-15T09:52:44;3.90;99.90
22813;DHT22;11573;51.334;3.244;2024-01-15T10:14:33;4.00;99.90
22813;DHT22;11573;51.334;3.244;2024-01-15T10:17:15;4.00;99.90
22813;DHT22;11573;51.334;3.244;2024-01-15T10:19:42;4.20;99.90
22813;DHT22;11573;51.334;3.244;2024-01-15T10:22:15;4.50;99.90
22813;DHT22;11573;51.334;3.244;2024-01-15T10:24:42;4.50;99.90
22813;DHT22;11573;51.334;3.244;2024-01-15T10:27:10;4.60;99.90
22813;DHT22;11573;51.334;3.244;2024-01-15T10:29:37;4.60;99.90
22813;DHT22;11573;51.334;3.244;2024-01-15T10:32:08;4.40;99.90
22813;DHT22;11573;51.334;3.244;2024-01-15T10:34:39;4.30;99.90
22813;DHT22;11573;51.334;3.244;2024-01-15T10:37:09;4.60;99.90
22813;DHT22;11573;51.334;3.244;2024-01-15T10:39:36;4.50;99.90
22813;DHT22;11573;51.334;3.244;2024-01-15T10:42:05;4.50;99.90
22813;DHT22;11573;51.334;3.244;2024-01-15T10:44:34;4.50;99.90
22813;DHT22;11573;51.334;3.244;2024-01-15T10:47:02;4.40;99.90
22813;DHT22;11573;51.334;3.244;2024-01-15T10:49:29;4.50;99.90
22813;DHT22;11573;51.334;3.244;2024-01-15T10:52:01;4.60;99.90
22813;DHT22;11573;51.334;3.244;2024-01-15T10:54:29;4.70;99.90
22813;DHT22;11573;51.334;3.244;2024-01-15T10:56:57;4.90;99.90
22813;DHT22;11573;51.334;3.244;2024-01-15T10:59:24;4.80;99.90
22813;DHT22;11573;51.334;3.244;2024-01-15T11:01:52;4.60;99.90
22813;DHT22;11573;51.334;3.244;2024-01-15T11:04:22;4.50;99.90
22813;DHT22;11573;51.334;3.244;2024-01-15T11:06:53;4.70;99.90
22813;DHT22;11573;51.334;3.244;2024-01-15T11:09:23;4.70;99.90
22813;DHT22;11573;51.334;3.244;2024-01-15T11:12:11;4.70;99.90
22813;DHT22;11573;51.334;3.244;2024-01-15T11:14:40;4.60;99.90
22813;DHT22;11573;51.334;3.244;2024-01-15T11:17:09;4.50;99.90
22813;DHT22;11573;51.334;3.244;2024-01-15T11:24:57;4.60;99.90
22813;DHT22;11573;51.334;3.244;2024-01-15T11:28:00;4.40;99.90
22813;DHT22;11573;51.334;3.244;2024-01-15T11:30:27;4.30;99.90
22813;DHT22;11573;51.334;3.244;2024-01-15T11:32:54;4.40;99.90
22813;DHT22;11573;51.334;3.244;2024-01-15T11:35:21;4.60;99.90
22813;DHT22;11573;51.334;3.244;2024-01-15T11:40:24;4.60;99.90
22813;DHT22;11573;51.334;3.244;2024-01-15T11:43:07;4.50;99.90
22813;DHT22;11573;51.334;3.244;2024-01-15T11:45:36;4.50;99.90
22813;DHT22;11573;51.334;3.244;2024-01-15T11:48:11;4.60;99.90
22813;DHT22;11573;51.334;3.244;2024-01-15T11:50:44;4.60;99.90
22813;DHT22;11573;51.334;3.244;2024-01-15T11:55:44;4.60;99.90
22813;DHT22;11573;51.334;3.244;2024-01-15T11:58:12;4.70;99.90
22813;DHT22;11573;51.334;3.244;2024-01-15T12:00:44;4.90;99.90
22813;DHT22;11573;51.334;3.244;2024-01-15T12:03:12;4.90;99.90
22813;DHT22;11573;51.334;3.244;2024-01-15T12:05:39;5.00;99.90
22813;DHT22;11573;51.334;3.244;2024-01-15T12:08:08;5.10;99.90
22813;DHT22;11573;51.334;3.244;2024-01-15T12:10:39;5.10;99.90
22813;DHT22;11573;51.334;3.244;2024-01-15T12:13:13;4.90;99.90
22813;DHT22;11573;51.334;3.244;2024-01-15T12:15:48;4.70;99.90
22813;DHT22;11573;51.334;3.244;2024-01-15T12:18:18;4.70;99.90
22813;DHT22;11573;51.334;3.244;2024-01-15T12:20:46;4.80;99.90
22813;DHT22;11573;51.334;3.244;2024-01-15T12:23:17;4.80;99.90
22813;DHT22;11573;51.334;3.244;2024-01-15T12:25:45;4.80;99.90
22813;DHT22;11573;51.334;3.244;2024-01-15T12:28:13;4.80;99.90
22813;DHT22;11573;51.334;3.244;2024-01-15T12:30:40;4.80;99.90
22813;DHT22;11573;51.334;3.244;2024-01-15T12:33:07;4.70;99.90
22813;DHT22;11573;51.334;3.244;2024-01-15T12:35:37;4.60;99.90
22813;DHT22;11573;51.334;3.244;2024-01-15T12:38:04;4.50;99.90
22813;DHT22;11573;51.334;3.244;2024-01-15T12:40:33;4.70;99.90
22813;DHT22;11573;51.334;3.244;2024-01-15T12:43:03;4.50;99.90
22813;DHT22;11573;51.334;3.244;2024-01-15T12:45:32;4.60;99.90
22813;DHT22;11573;51.334;3.244;2024-01-15T12:47:59;4.60;99.90
22813;DHT22;11573;51.334;3.244;2024-01-15T12:50:27;4.70;99.90
22813;DHT22;11573;51.334;3.244;2024-01-15T12:52:54;4.80;99.90
22813;DHT22;11573;51.334;3.244;2024-01-15T12:55:21;4.70;99.90
22813;DHT22;11573;51.334;3.244;2024-01-15T12:57:49;4.70;99.90
22813;DHT22;11573;51.334;3.244;2024-01-15T13:00:19;4.70;99.90
22813;DHT22;11573;51.334;3.244;2024-01-15T13:02:47;4.50;99.90
22813;DHT22;11573;51.334;3.244;2024-01-15T13:05:15;4.60;99.90
22813;DHT22;11573;51.334;3.244;2024-01-15T13:07:43;4.50;99.90
22813;DHT22;11573;51.334;3.244;2024-01-15T13:10:11;4.60;99.90
22813;DHT22;11573;51.334;3.244;2024-01-15T13:12:39;4.60;99.90
22813;DHT22;11573;51.334;3.244;2024-01-15T13:15:07;4.60;99.90
22813;DHT22;11573;51.334;3.244;2024-01-15T13:17:40;4.60;99.90
22813;DHT22;11573;51.334;3.244;2024-01-15T13:20:08;4.70;99.90
22813;DHT22;11573;51.334;3.244;2024-01-15T13:22:36;4.70;99.90
22813;DHT22;11573;51.334;3.244;2024-01-15T13:25:07;4.60;99.90
22813;DHT22;11573;51.334;3.244;2024-01-15T13:27:35;4.70;99.90
22813;DHT22;11573;51.334;3.244;2024-01-15T13:30:03;4.70;99.90
22813;DHT22;11573;51.334;3.244;2024-01-15T13:32:31;4.70;99.90
22813;DHT22;11573;51.334;3.244;2024-01-15T13:34:59;4.70;99.90
22813;DHT22;11573;51.334;3.244;2024-01-15T13:37:26;4.60;99.90
22813;DHT22;11573;51.334;3.244;2024-01-15T13:39:54;4.60;99.90
22813;DHT22;11573;51.334;3.244;2024-01-15T13:42:21;4.70;99.90
22813;DHT22;11573;51.334;3.244;2024-01-15T13:44:49;4.70;99.90
22813;DHT22;11573;51.334;3.244;2024-01-15T13:47:16;4.60;99.90
22813;DHT22;11573;51.334;3.244;2024-01-15T13:49:43;4.60;99.90
22813;DHT22;11573;51.334;3.244;2024-01-15T13:52:11;4.60;99.90
22813;DHT22;11573;51.334;3.244;2024-01-15T13:54:39;4.50;99.90
22813;DHT22;11573;51.334;3.244;2024-01-15T13:57:19;4.50;99.90
22813;DHT22;11573;51.334;3.244;2024-01-15T13:59:47;4.50;99.90
22813;DHT22;11573;51.334;3.244;2024-01-15T14:02:16;4.60;99.90
22813;DHT22;11573;51.334;3.244;2024-01-15T14:04:48;4.80;99.90
22813;DHT22;11573;51.334;3.244;2024-01-15T14:07:16;4.80;99.90
22813;DHT22;11573;51.334;3.244;2024-01-15T14:09:43;4.90;99.90
22813;DHT22;11573;51.334;3.244;2024-01-15T14:12:10;4.90;99.90
22813;DHT22;11573;51.334;3.244;2024-01-15T14:14:39;4.80;99.90
22813;DHT22;11573;51.334;3.244;2024-01-15T14:17:07;4.70;99.90
22813;DHT22;11573;51.334;3.244;2024-01-15T14:19:34;4.80;99.90
22813;DHT22;11573;51.334;3.244;2024-01-15T14:22:01;4.90;99.90
22813;DHT22;11573;51.334;3.244;2024-01-15T14:24:28;4.80;99.90
22813;DHT22;11573;51.334;3.244;2024-01-15T14:26:55;4.60;99.90
22813;DHT22;11573;51.334;3.244;2024-01-15T14:29:23;4.80;99.90
22813;DHT22;11573;51.334;3.244;2024-01-15T14:31:53;4.80;99.90
22813;DHT22;11573;51.334;3.244;2024-01-15T14:34:20;4.70;99.90
22813;DHT22;11573;51.334;3.244;2024-01-15T14:36:51;4.70;99.90
22813;DHT22;11573;51.334;3.244;2024-01-15T14:39:24;4.60;99.90
22813;DHT22;11573;51.334;3.244;2024-01-15T14:41:52;4.60;99.90
22813;DHT22;11573;51.334;3.244;2024-01-15T14:44:19;4.60;99.90
22813;DHT22;11573;51.334;3.244;2024-01-15T14:46:47;4.60;99.90
22813;DHT22;11573;51.334;3.244;2024-01-15T14:49:14;4.50;99.90
22813;DHT22;11573;51.334;3.244;2024-01-15T14:51:44;4.50;99.90
22813;DHT22;11573;51.334;3.244;2024-01-15T14:54:11;4.40;99.90
22813;DHT22;11573;51.334;3.244;2024-01-15T14:56:38;4.40;99.90
22813;DHT22;11573;51.334;3.244;2024-01-15T14:59:05;4.40;99.90
22813;DHT22;11573;51.334;3.244;2024-01-15T15:01:32;4.50;99.90
22813;DHT22;11573;51.334;3.244;2024-01-15T15:04:01;4.40;99.90
22813;DHT22;11573;51.334;3.244;2024-01-15T15:06:28;4.50;99.90
22813;DHT22;11573;51.334;3.244;2024-01-15T15:08:55;4.40;99.90
22813;DHT22;11573;51.334;3.244;2024-01-15T15:11:28;4.40;99.90
22813;DHT22;11573;51.334;3.244;2024-01-15T15:13:55;4.30;99.90
22813;DHT22;11573;51.334;3.244;2024-01-15T15:16:22;4.30;99.90
22813;DHT22;11573;51.334;3.244;2024-01-15T15:18:49;4.30;99.90
22813;DHT22;11573;51.334;3.244;2024-01-15T15:21:16;4.30;99.90
22813;DHT22;11573;51.334;3.244;2024-01-15T15:23:43;4.30;99.90
22813;DHT22;11573;51.334;3.244;2024-01-15T15:26:10;4.20;99.90
22813;DHT22;11573;51.334;3.244;2024-01-15T15:28:38;4.20;99.90
22813;DHT22;11573;51.334;3.244;2024-01-15T15:31:08;4.20;99.90
22813;DHT22;11573;51.334;3.244;2024-01-15T15:33:35;4.30;99.90
22813;DHT22;11573;51.334;3.244;2024-01-15T15:36:04;4.40;99.90
22813;DHT22;11573;51.334;3.244;2024-01-15T15:38:32;4.30;99.90
22813;DHT22;11573;51.334;3.244;2024-01-15T15:40:59;4.20;99.90
22813;DHT22;11573;51.334;3.244;2024-01-15T15:43:27;4.10;99.90
22813;DHT22;11573;51.334;3.244;2024-01-15T15:45:54;4.00;99.90
22813;DHT22;11573;51.334;3.244;2024-01-15T15:48:21;4.00;99.90
22813;DHT22;11573;51.334;3.244;2024-01-15T15:50:50;4.00;99.90
22813;DHT22;11573;51.334;3.244;2024-01-15T15:53:18;3.90;99.90
22813;DHT22;11573;51.334;3.244;2024-01-15T15:55:46;3.90;99.90
22813;DHT22;11573;51.334;3.244;2024-01-15T15:58:13;4.00;99.90
22813;DHT22;11573;51.334;3.244;2024-01-15T16:00:40;4.00;99.90
22813;DHT22;11573;51.334;3.244;2024-01-15T16:03:07;4.00;99.90
22813;DHT22;11573;51.334;3.244;2024-01-15T16:05:34;3.90;99.90
22813;DHT22;11573;51.334;3.244;2024-01-15T16:08:15;3.90;99.90
22813;DHT22;11573;51.334;3.244;2024-01-15T16:10:42;3.90;99.90
22813;DHT22;11573;51.334;3.244;2024-01-15T16:13:09;3.90;99.90
22813;DHT22;11573;51.334;3.244;2024-01-15T16:15:36;3.90;99.90
22813;DHT22;11573;51.334;3.244;2024-01-15T16:18:03;3.90;99.90
22813;DHT22;11573;51.334;3.244;2024-01-15T16:20:50;4.00;99.90
22813;DHT22;11573;51.334;3.244;2024-01-15T16:23:37;4.00;99.90
22813;DHT22;11573;51.334;3.244;2024-01-15T16:26:24;4.00;99.90
22813;DHT22;11573;51.334;3.244;2024-01-15T16:28:52;4.00;99.90
22813;DHT22;11573;51.334;3.244;2024-01-15T16:31:20;3.90;99.90
22813;DHT22;11573;51.334;3.244;2024-01-15T16:33:48;3.90;99.90
22813;DHT22;11573;51.334;3.244;2024-01-15T16:36:23;3.80;99.90